sensor_id;sensor_type;location;lat;lon;timestamp;pressure;altitude;pressure_sealevel;temperature;humidity
46724;BME280;32463;48.298;11.620;2023-12-14T00:00:35;95140.38;;;5.10;100.00
46724;BME280;32463;48.298;11.620;2023-12-14T00:03:02;95144.84;;;5.08;100.00
46724;BME280;32463;48.298;11.620;2023-12-14T00:05:28;95147.84;;;5.37;100.00
46724;BME280;32463;48.298;11.620;2023-12-14T00:07:55;95152.59;;;5.16;100.00
46724;BME280;32463;48.298;11.620;2023-12-14T00:10:21;95148.72;;;5.12;100.00
46724;BME280;32463;48.298;11.620;2023-12-14T00:12:48;95157.84;;;5.06;100.00
46724;BME280;32463;48.298;11.620;2023-12-14T00:15:16;95151.44;;;5.11;100.00
46724;BME280;32463;48.298;11.620;2023-12-14T00:17:43;95163.19;;;5.13;100.00
46724;BME280;32463;48.298;11.620;2023-12-14T00:20:09;95155.31;;;5.15;100.00
46724;BME280;32463;48.298;11.620;2023-12-14T00:22:36;95169.94;;;5.14;100.00
46724;BME280;32463;48.298;11.620;2023-12-14T00:25:03;95169.72;;;5.07;100.00
46724;BME280;32463;48.298;11.620;2023-12-14T00:27:30;95173.81;;;5.18;100.00
46724;BME280;32463;48.298;11.620;2023-12-14T00:29:57;95175.19;;;5.04;100.00
46724;BME280;32463;48.298;11.620;2023-12-14T00:32:24;95173.81;;;5.18;100.00
46724;BME280;32463;48.298;11.620;2023-12-14T00:34:50;95171.50;;;5.07;100.00
46724;BME280;32463;48.298;11.620;2023-12-14T00:37:17;95180.00;;;5.07;100.00
46724;BME280;32463;48.298;11.620;2023-12-14T00:39:43;95179.81;;;5.01;100.00
46724;BME280;32463;48.298;11.620;2023-12-14T00:42:10;95183.84;;;5.03;100.00
46724;BME280;32463;48.298;11.620;2023-12-14T00:44:36;95188.78;;;4.97;100.00
46724;BME280;32463;48.298;11.620;2023-12-14T00:47:03;95196.78;;;4.94;100.00
46724;BME280;32463;48.298;11.620;2023-12-14T00:49:29;95200.66;;;4.98;100.00
46724;BME280;32463;48.298;11.620;2023-12-14T00:51:57;95202.69;;;4.86;100.00
46724;BME280;32463;48.298;11.620;2023-12-14T00:54:23;95213.44;;;4.90;100.00
46724;BME280;32463;48.298;11.620;2023-12-14T00:56:50;95207.50;;;4.89;100.00
46724;BME280;32463;48.298;11.620;2023-12-14T00:59:16;95220.69;;;4.94;100.00
46724;BME280;32463;48.298;11.620;2023-12-14T01:01:43;95226.59;;;4.87;100.00
46724;BME280;32463;48.298;11.620;2023-12-14T01:04:09;95227.00;;;5.00;100.00
46724;BME280;32463;48.298;11.620;2023-12-14T01:06:36;95226.91;;;5.10;100.00
46724;BME280;32463;48.298;11.620;2023-12-14T01:09:02;95234.63;;;4.92;100.00
46724;BME280;32463;48.298;11.620;2023-12-14T01:11:29;95234.97;;;4.89;100.00
46724;BME280;32463;48.298;11.620;2023-12-14T01:13:55;95241.34;;;4.85;100.00
46724;BME280;32463;48.298;11.620;2023-12-14T01:16:26;95247.81;;;4.89;100.00
46724;BME280;32463;48.298;11.620;2023-12-14T01:18:52;95249.09;;;4.93;100.00
46724;BME280;32463;48.298;11.620;2023-12-14T01:21:19;95248.13;;;4.94;100.00
46724;BME280;32463;48.298;11.620;2023-12-14T01:23:46;95250.03;;;4.84;100.00
46724;BME280;32463;48.298;11.620;2023-12-14T01:26:12;95255.50;;;4.89;100.00
46724;BME280;32463;48.298;11.620;2023-12-14T01:28:39;95257.47;;;4.95;100.00
46724;BME280;32463;48.298;11.620;2023-12-14T01:31:05;95254.38;;;4.91;100.00
46724;BME280;32463;48.298;11.620;2023-12-14T01:33:32;95252.69;;;5.00;100.00
46724;BME280;32463;48.298;11.620;2023-12-14T01:35:58;95252.44;;;4.85;100.00
46724;BME280;32463;48.298;11.620;2023-12-14T01:38:25;95258.84;;;4.89;100.00
46724;BME280;32463;48.298;11.620;2023-12-14T01:40:51;95266.88;;;4.86;100.00
46724;BME280;32463;48.298;11.620;2023-12-14T01:43:18;95267.13;;;5.01;100.00
46724;BME280;32463;48.298;11.620;2023-12-14T01:45:44;95273.88;;;5.02;100.00
46724;BME280;32463;48.298;11.620;2023-12-14T01:48:11;95274.47;;;4.96;100.00
46724;BME280;32463;48.298;11.620;2023-12-14T01:50:37;95278.97;;;4.94;100.00
46724;BME280;32463;48.298;11.620;2023-12-14T01:53:05;95280.81;;;4.84;100.00
46724;BME280;32463;48.298;11.620;2023-12-14T01:55:31;95289.19;;;4.86;100.00
46724;BME280;32463;48.298;11.620;2023-12-14T01:57:59;95280.81;;;4.84;100.00
46724;BME280;32463;48.298;11.620;2023-12-14T02:00:36;95285.00;;;4.85;100.00
46724;BME280;32463;48.298;11.620;2023-12-14T02:03:05;95298.38;;;4.88;100.00
46724;BME280;32463;48.298;11.620;2023-12-14T02:05:32;95299.94;;;4.89;100.00
46724;BME280;32463;48.298;11.620;2023-12-14T02:07:58;95303.94;;;4.84;100.00
46724;BME280;32463;48.298;11.620;2023-12-14T02:10:25;95314.94;;;4.76;100.00
46724;BME280;32463;48.298;11.620;2023-12-14T02:12:51;95321.31;;;4.72;100.00
46724;BME280;32463;48.298;11.620;2023-12-14T02:15:18;95318.91;;;4.70;100.00
46724;BME280;32463;48.298;11.620;2023-12-14T02:17:45;95326.59;;;4.70;100.00
46724;BME280;32463;48.298;11.620;2023-12-14T02:20:11;95324.03;;;4.70;100.00
46724;BME280;32463;48.298;11.620;2023-12-14T02:22:56;95320.16;;;4.66;100.00
46724;BME280;32463;48.298;11.620;2023-12-14T02:25:23;95327.94;;;4.74;100.00
46724;BME280;32463;48.298;11.620;2023-12-14T02:27:51;95322.06;;;4.64;100.00
46724;BME280;32463;48.298;11.620;2023-12-14T02:30:17;95329.97;;;4.71;100.00
46724;BME280;32463;48.298;11.620;2023-12-14T02:32:44;95335.19;;;4.61;100.00
46724;BME280;32463;48.298;11.620;2023-12-14T02:35:11;95339.81;;;4.76;100.00
46724;BME280;32463;48.298;11.620;2023-12-14T02:37:38;95338.50;;;4.71;100.00
46724;BME280;32463;48.298;11.620;2023-12-14T02:40:06;95343.91;;;5.04;100.00
46724;BME280;32463;48.298;11.620;2023-12-14T02:42:33;95353.81;;;4.81;100.00
46724;BME280;32463;48.298;11.620;2023-12-14T02:45:00;95356.47;;;4.71;100.00
46724;BME280;32463;48.298;11.620;2023-12-14T02:47:28;95358.16;;;4.81;100.00
46724;BME280;32463;48.298;11.620;2023-12-14T02:49:55;95364.31;;;4.88;100.00
46724;BME280;32463;48.298;11.620;2023-12-14T02:52:22;95365.47;;;4.76;100.00
46724;BME280;32463;48.298;11.620;2023-12-14T02:54:48;95363.28;;;4.81;100.00
46724;BME280;32463;48.298;11.620;2023-12-14T02:57:15;95363.88;;;4.74;100.00
46724;BME280;32463;48.298;11.620;2023-12-14T02:59:41;95369.59;;;4.68;100.00
46724;BME280;32463;48.298;11.620;2023-12-14T03:02:08;95365.19;;;4.79;100.00
46724;BME280;32463;48.298;11.620;2023-12-14T03:04:34;95372.38;;;4.93;100.00
46724;BME280;32463;48.298;11.620;2023-12-14T03:07:03;95375.31;;;4.98;100.00
46724;BME280;32463;48.298;11.620;2023-12-14T03:09:30;95375.47;;;4.79;100.00
46724;BME280;32463;48.298;11.620;2023-12-14T03:11:56;95378.59;;;4.72;100.00
46724;BME280;32463;48.298;11.620;2023-12-14T03:14:23;95378.47;;;4.74;100.00
46724;BME280;32463;48.298;11.620;2023-12-14T03:16:49;95385.84;;;4.59;100.00
46724;BME280;32463;48.298;11.620;2023-12-14T03:19:16;95390.84;;;4.61;100.00
46724;BME280;32463;48.298;11.620;2023-12-14T03:21:42;95392.59;;;4.60;100.00
46724;BME280;32463;48.298;11.620;2023-12-14T03:24:09;95395.81;;;4.62;100.00
46724;BME280;32463;48.298;11.620;2023-12-14T03:26:35;95402.75;;;4.80;100.00
46724;BME280;32463;48.298;11.620;2023-12-14T03:29:02;95400.47;;;4.77;100.00
46724;BME280;32463;48.298;11.620;2023-12-14T03:31:28;95405.81;;;4.65;100.00
46724;BME280;32463;48.298;11.620;2023-12-14T03:33:55;95412.94;;;4.54;100.00
46724;BME280;32463;48.298;11.620;2023-12-14T03:36:21;95420.47;;;4.55;100.00
46724;BME280;32463;48.298;11.620;2023-12-14T03:38:51;95421.78;;;4.59;100.00
46724;BME280;32463;48.298;11.620;2023-12-14T03:41:18;95422.81;;;4.66;100.00
46724;BME280;32463;48.298;11.620;2023-12-14T03:43:44;95429.56;;;4.67;100.00
46724;BME280;32463;48.298;11.620;2023-12-14T03:46:11;95426.97;;;4.77;100.00
46724;BME280;32463;48.298;11.620;2023-12-14T03:48:37;95436.28;;;4.78;100.00
46724;BME280;32463;48.298;11.620;2023-12-14T03:51:04;95431.91;;;4.88;100.00
46724;BME280;32463;48.298;11.620;2023-12-14T03:53:31;95436.72;;;4.91;100.00
46724;BME280;32463;48.298;11.620;2023-12-14T03:55:58;95448.97;;;4.80;100.00
46724;BME280;32463;48.298;11.620;2023-12-14T03:58:25;95450.44;;;4.82;100.00
46724;BME280;32463;48.298;11.620;2023-12-14T04:00:52;95456.47;;;4.63;100.00
46724;BME280;32463;48.298;11.620;2023-12-14T04:03:18;95455.81;;;4.61;100.00
46724;BME280;32463;48.298;11.620;2023-12-14T04:05:45;95459.56;;;4.67;100.00
46724;BME280;32463;48.298;11.620;2023-12-14T04:08:11;95464.22;;;4.81;100.00
46724;BME280;32463;48.298;11.620;2023-12-14T04:10:38;95472.03;;;4.62;100.00
46724;BME280;32463;48.298;11.620;2023-12-14T04:13:04;95475.34;;;4.54;100.00
46724;BME280;32463;48.298;11.620;2023-12-14T04:15:31;95480.19;;;4.57;100.00
46724;BME280;32463;48.298;11.620;2023-12-14T04:17:57;95479.97;;;4.68;100.00
46724;BME280;32463;48.298;11.620;2023-12-14T04:20:24;95484.25;;;4.50;100.00
46724;BME280;32463;48.298;11.620;2023-12-14T04:22:50;95487.22;;;4.55;100.00
46724;BME280;32463;48.298;11.620;2023-12-14T04:25:17;95494.53;;;4.50;100.00
46724;BME280;32463;48.298;11.620;2023-12-14T04:27:44;95503.88;;;4.42;100.00
46724;BME280;32463;48.298;11.620;2023-12-14T04:30:11;95498.59;;;4.43;100.00
46724;BME280;32463;48.298;11.620;2023-12-14T04:32:38;95509.41;;;4.37;100.00
46724;BME280;32463;48.298;11.620;2023-12-14T04:35:05;95509.16;;;4.40;100.00
46724;BME280;32463;48.298;11.620;2023-12-14T04:37:32;95509.16;;;4.40;100.00
46724;BME280;32463;48.298;11.620;2023-12-14T04:39:59;95518.19;;;4.44;100.00
46724;BME280;32463;48.298;11.620;2023-12-14T04:42:26;95523.88;;;4.38;100.00
46724;BME280;32463;48.298;11.620;2023-12-14T04:44:52;95519.13;;;4.43;100.00
46724;BME280;32463;48.298;11.620;2023-12-14T04:47:19;95522.66;;;4.42;100.00
46724;BME280;32463;48.298;11.620;2023-12-14T04:49:45;95531.69;;;4.46;100.00
46724;BME280;32463;48.298;11.620;2023-12-14T04:52:12;95540.06;;;4.48;100.00
46724;BME280;32463;48.298;11.620;2023-12-14T04:54:38;95539.38;;;4.46;100.00
46724;BME280;32463;48.298;11.620;2023-12-14T04:57:05;95545.31;;;4.56;100.00
46724;BME280;32463;48.298;11.620;2023-12-14T04:59:32;95549.19;;;4.60;100.00
46724;BME280;32463;48.298;11.620;2023-12-14T05:01:58;95551.88;;;4.59;100.00
46724;BME280;32463;48.298;11.620;2023-12-14T05:04:25;95555.94;;;4.61;100.00
46724;BME280;32463;48.298;11.620;2023-12-14T05:06:51;95567.41;;;4.67;100.00
46724;BME280;32463;48.298;11.620;2023-12-14T05:09:18;95564.78;;;4.49;100.00
46724;BME280;32463;48.298;11.620;2023-12-14T05:11:45;95573.81;;;4.53;100.00
46724;BME280;32463;48.298;11.620;2023-12-14T05:14:12;95579.63;;;4.46;100.00
46724;BME280;32463;48.298;11.620;2023-12-14T05:16:38;95579.66;;;4.36;100.00
46724;BME280;32463;48.298;11.620;2023-12-14T05:19:05;95581.28;;;4.37;100.00
46724;BME280;32463;48.298;11.620;2023-12-14T05:21:31;95583.16;;;4.45;100.00
46724;BME280;32463;48.298;11.620;2023-12-14T05:23:58;95591.09;;;4.51;100.00
46724;BME280;32463;48.298;11.620;2023-12-14T05:26:25;95602.88;;;4.44;100.00
46724;BME280;32463;48.298;11.620;2023-12-14T05:28:51;95598.81;;;4.42;100.00
46724;BME280;32463;48.298;11.620;2023-12-14T05:31:19;95597.19;;;4.50;100.00
46724;BME280;32463;48.298;11.620;2023-12-14T05:33:45;95607.19;;;4.44;100.00
46724;BME280;32463;48.298;11.620;2023-12-14T05:36:11;95608.22;;;4.60;100.00
46724;BME280;32463;48.298;11.620;2023-12-14T05:38:38;95610.69;;;4.43;100.00
46724;BME280;32463;48.298;11.620;2023-12-14T05:41:06;95625.56;;;4.39;100.00
46724;BME280;32463;48.298;11.620;2023-12-14T05:43:32;95615.31;;;4.39;100.00
46724;BME280;32463;48.298;11.620;2023-12-14T05:45:59;95628.00;;;4.31;100.00
46724;BME280;32463;48.298;11.620;2023-12-14T05:48:25;95626.50;;;4.28;100.00
46724;BME280;32463;48.298;11.620;2023-12-14T05:50:53;95639.34;;;4.28;100.00
46724;BME280;32463;48.298;11.620;2023-12-14T05:53:20;95640.69;;;4.32;100.00
46724;BME280;32463;48.298;11.620;2023-12-14T05:55:47;95642.22;;;4.25;100.00
46724;BME280;32463;48.298;11.620;2023-12-14T05:58:13;95642.72;;;4.29;100.00
46724;BME280;32463;48.298;11.620;2023-12-14T06:00:40;95645.81;;;4.32;100.00
46724;BME280;32463;48.298;11.620;2023-12-14T06:03:07;95649.59;;;4.48;100.00
46724;BME280;32463;48.298;11.620;2023-12-14T06:05:33;95655.00;;;4.35;100.00
46724;BME280;32463;48.298;11.620;2023-12-14T06:07:59;95660.13;;;4.35;100.00
46724;BME280;32463;48.298;11.620;2023-12-14T06:10:26;95659.75;;;4.20;100.00
46724;BME280;32463;48.298;11.620;2023-12-14T06:12:52;95669.34;;;4.28;100.00
46724;BME280;32463;48.298;11.620;2023-12-14T06:15:19;95676.06;;;4.29;100.00
46724;BME280;32463;48.298;11.620;2023-12-14T06:17:45;95678.25;;;4.43;100.00
46724;BME280;32463;48.298;11.620;2023-12-14T06:20:12;95689.97;;;4.36;100.00
46724;BME280;32463;48.298;11.620;2023-12-14T06:22:39;95691.47;;;4.29;100.00
46724;BME280;32463;48.298;11.620;2023-12-14T06:25:05;95695.00;;;4.28;100.00
46724;BME280;32463;48.298;11.620;2023-12-14T06:27:32;95696.88;;;4.16;100.00
46724;BME280;32463;48.298;11.620;2023-12-14T06:29:58;95697.97;;;4.14;100.00
46724;BME280;32463;48.298;11.620;2023-12-14T06:32:25;95698.50;;;4.07;100.00
46724;BME280;32463;48.298;11.620;2023-12-14T06:34:52;95706.34;;;4.16;100.00
46724;BME280;32463;48.298;11.620;2023-12-14T06:37:18;95704.97;;;4.12;100.00
46724;BME280;32463;48.298;11.620;2023-12-14T06:39:45;95716.31;;;4.09;100.00
46724;BME280;32463;48.298;11.620;2023-12-14T06:42:11;95720.38;;;4.21;100.00
46724;BME280;32463;48.298;11.620;2023-12-14T06:44:39;95714.44;;;4.21;100.00
46724;BME280;32463;48.298;11.620;2023-12-14T06:47:06;95719.28;;;4.14;100.00
46724;BME280;32463;48.298;11.620;2023-12-14T06:49:33;95732.13;;;4.24;100.00
46724;BME280;32463;48.298;11.620;2023-12-14T06:51:59;95731.16;;;4.05;100.00
46724;BME280;32463;48.298;11.620;2023-12-14T06:54:25;95734.41;;;4.07;100.00
46724;BME280;32463;48.298;11.620;2023-12-14T06:56:52;95746.56;;;4.05;100.00
46724;BME280;32463;48.298;11.620;2023-12-14T06:59:18;95743.56;;;4.00;100.00
46724;BME280;32463;48.298;11.620;2023-12-14T07:01:45;95759.50;;;3.94;100.00
46724;BME280;32463;48.298;11.620;2023-12-14T07:04:11;95753.00;;;3.90;100.00
46724;BME280;32463;48.298;11.620;2023-12-14T07:06:39;95761.91;;;3.86;100.00
46724;BME280;32463;48.298;11.620;2023-12-14T07:09:05;95766.78;;;3.99;100.00
46724;BME280;32463;48.298;11.620;2023-12-14T07:11:32;95777.72;;;3.91;100.00
46724;BME280;32463;48.298;11.620;2023-12-14T07:13:58;95787.16;;;4.00;100.00
46724;BME280;32463;48.298;11.620;2023-12-14T07:16:25;95782.47;;;3.96;100.00
46724;BME280;32463;48.298;11.620;2023-12-14T07:18:51;95787.03;;;4.02;100.00
46724;BME280;32463;48.298;11.620;2023-12-14T07:21:17;95797.03;;;3.95;100.00
46724;BME280;32463;48.298;11.620;2023-12-14T07:23:44;95803.56;;;4.19;100.00
46724;BME280;32463;48.298;11.620;2023-12-14T07:26:09;95802.97;;;4.05;100.00
46724;BME280;32463;48.298;11.620;2023-12-14T07:28:36;95797.84;;;4.05;100.00
46724;BME280;32463;48.298;11.620;2023-12-14T07:31:02;95798.78;;;4.04;100.00
46724;BME280;32463;48.298;11.620;2023-12-14T07:33:29;95802.44;;;4.12;100.00
46724;BME280;32463;48.298;11.620;2023-12-14T07:35:55;95807.06;;;4.18;100.00
46724;BME280;32463;48.298;11.620;2023-12-14T07:38:22;95811.13;;;4.20;100.00
46724;BME280;32463;48.298;11.620;2023-12-14T07:40:48;95819.25;;;4.25;100.00
46724;BME280;32463;48.298;11.620;2023-12-14T07:43:15;95824.88;;;4.29;100.00
46724;BME280;32463;48.298;11.620;2023-12-14T07:45:42;95829.50;;;4.35;100.00
46724;BME280;32463;48.298;11.620;2023-12-14T07:48:08;95826.81;;;4.46;100.00
46724;BME280;32463;48.298;11.620;2023-12-14T07:50:36;95833.56;;;4.47;100.00
46724;BME280;32463;48.298;11.620;2023-12-14T07:53:03;95834.25;;;4.49;100.00
46724;BME280;32463;48.298;11.620;2023-12-14T07:55:30;95840.88;;;4.52;100.00
46724;BME280;32463;48.298;11.620;2023-12-14T07:57:56;95845.47;;;4.67;100.00
46724;BME280;32463;48.298;11.620;2023-12-14T08:00:23;95845.22;;;4.70;100.00
46724;BME280;32463;48.298;11.620;2023-12-14T08:02:49;95840.06;;;4.70;100.00
46724;BME280;32463;48.298;11.620;2023-12-14T08:05:16;95852.22;;;4.68;100.00
46724;BME280;32463;48.298;11.620;2023-12-14T08:07:42;95843.31;;;4.72;100.00
46724;BME280;32463;48.298;11.620;2023-12-14T08:10:09;95852.53;;;4.85;100.00
46724;BME280;32463;48.298;11.620;2023-12-14T08:12:35;95857.66;;;4.85;100.00
46724;BME280;32463;48.298;11.620;2023-12-14T08:15:02;95852.25;;;4.88;100.00
46724;BME280;32463;48.298;11.620;2023-12-14T08:17:28;95849.53;;;4.80;100.00
46724;BME280;32463;48.298;11.620;2023-12-14T08:19:55;95861.97;;;4.74;100.00
46724;BME280;32463;48.298;11.620;2023-12-14T08:22:21;95878.47;;;4.82;100.00
46724;BME280;32463;48.298;11.620;2023-12-14T08:24:48;95886.44;;;4.79;100.00
46724;BME280;32463;48.298;11.620;2023-12-14T08:27:15;95890.63;;;4.80;100.00
46724;BME280;32463;48.298;11.620;2023-12-14T08:29:41;95887.78;;;4.83;100.00
46724;BME280;32463;48.298;11.620;2023-12-14T08:32:08;95893.06;;;4.91;100.00
46724;BME280;32463;48.298;11.620;2023-12-14T08:34:34;95904.44;;;4.88;100.00
46724;BME280;32463;48.298;11.620;2023-12-14T08:37:01;95909.84;;;5.04;100.00
46724;BME280;32463;48.298;11.620;2023-12-14T08:39:28;95909.56;;;5.17;100.00
46724;BME280;32463;48.298;11.620;2023-12-14T08:41:54;95914.16;;;5.23;100.00
46724;BME280;32463;48.298;11.620;2023-12-14T08:44:21;95917.16;;;5.09;100.00
46724;BME280;32463;48.298;11.620;2023-12-14T08:46:47;95916.22;;;5.20;100.00
46724;BME280;32463;48.298;11.620;2023-12-14T08:49:14;95925.00;;;5.17;100.00
46724;BME280;32463;48.298;11.620;2023-12-14T08:51:42;95923.09;;;5.38;100.00
46724;BME280;32463;48.298;11.620;2023-12-14T08:54:09;95924.44;;;5.43;100.00
46724;BME280;32463;48.298;11.620;2023-12-14T08:56:35;95931.75;;;5.37;100.00
46724;BME280;32463;48.298;11.620;2023-12-14T08:59:01;95938.06;;;5.53;100.00
46724;BME280;32463;48.298;11.620;2023-12-14T09:01:29;95939.00;;;5.52;100.00
46724;BME280;32463;48.298;11.620;2023-12-14T09:03:55;95947.13;;;5.57;100.00
46724;BME280;32463;48.298;11.620;2023-12-14T09:06:22;95945.53;;;5.46;100.00
46724;BME280;32463;48.298;11.620;2023-12-14T09:08:48;95958.53;;;5.45;100.00
46724;BME280;32463;48.298;11.620;2023-12-14T09:11:15;95958.13;;;5.49;100.00
46724;BME280;32463;48.298;11.620;2023-12-14T09:13:42;95956.19;;;5.61;100.00
46724;BME280;32463;48.298;11.620;2023-12-14T09:16:08;95969.88;;;5.61;100.00
46724;BME280;32463;48.298;11.620;2023-12-14T09:18:35;95968.50;;;5.67;100.00
46724;BME280;32463;48.298;11.620;2023-12-14T09:21:02;95963.91;;;5.61;100.00
46724;BME280;32463;48.298;11.620;2023-12-14T09:23:29;95979.06;;;5.73;100.00
46724;BME280;32463;48.298;11.620;2023-12-14T09:25:56;95984.59;;;5.88;100.00
46724;BME280;32463;48.298;11.620;2023-12-14T09:28:24;95989.31;;;5.83;100.00
46724;BME280;32463;48.298;11.620;2023-12-14T09:30:51;95983.41;;;5.73;100.00
46724;BME280;32463;48.298;11.620;2023-12-14T09:33:18;95981.66;;;5.64;100.00
46724;BME280;32463;48.298;11.620;2023-12-14T09:35:44;95982.28;;;5.85;100.00
46724;BME280;32463;48.298;11.620;2023-12-14T09:38:11;95984.34;;;5.91;100.00
46724;BME280;32463;48.298;11.620;2023-12-14T09:40:39;95983.41;;;5.73;100.00
46724;BME280;32463;48.298;11.620;2023-12-14T09:43:06;95986.25;;;5.70;100.00
46724;BME280;32463;48.298;11.620;2023-12-14T09:45:34;95990.81;;;5.86;100.00
46724;BME280;32463;48.298;11.620;2023-12-14T09:48:01;95998.41;;;5.97;100.00
46724;BME280;32463;48.298;11.620;2023-12-14T09:50:30;95990.69;;;6.06;100.00
46724;BME280;32463;48.298;11.620;2023-12-14T09:52:57;95993.69;;;5.92;100.00
46724;BME280;32463;48.298;11.620;2023-12-14T09:55:24;96004.25;;;5.80;100.00
46724;BME280;32463;48.298;11.620;2023-12-14T09:57:50;96007.47;;;5.82;100.00
46724;BME280;32463;48.298;11.620;2023-12-14T10:00:33;96020.63;;;5.69;100.00
46724;BME280;32463;48.298;11.620;2023-12-14T10:03:23;96016.16;;;5.81;100.00
46724;BME280;32463;48.298;11.620;2023-12-14T10:05:52;96011.25;;;5.87;100.00
46724;BME280;32463;48.298;11.620;2023-12-14T10:08:18;96016.84;;;5.92;100.00
46724;BME280;32463;48.298;11.620;2023-12-14T10:10:47;96019.38;;;6.12;100.00
46724;BME280;32463;48.298;11.620;2023-12-14T10:13:16;96021.84;;;5.94;100.00
46724;BME280;32463;48.298;11.620;2023-12-14T10:15:47;96012.09;;;5.78;100.00
46724;BME280;32463;48.298;11.620;2023-12-14T10:18:24;96019.00;;;5.97;100.00
46724;BME280;32463;48.298;11.620;2023-12-14T10:20:51;96023.75;;;5.92;100.00
46724;BME280;32463;48.298;11.620;2023-12-14T10:23:18;96020.59;;;5.88;100.00
46724;BME280;32463;48.298;11.620;2023-12-14T10:25:45;96026.66;;;6.35;100.00
46724;BME280;32463;48.298;11.620;2023-12-14T10:28:14;96023.97;;;7.55;100.00
46724;BME280;32463;48.298;11.620;2023-12-14T10:30:41;96022.16;;;8.52;100.00
46724;BME280;32463;48.298;11.620;2023-12-14T10:33:08;96028.44;;;8.84;100.00
46724;BME280;32463;48.298;11.620;2023-12-14T10:35:36;96031.31;;;8.81;100.00
46724;BME280;32463;48.298;11.620;2023-12-14T10:38:04;96026.81;;;8.91;100.00
46724;BME280;32463;48.298;11.620;2023-12-14T10:40:32;96036.03;;;8.51;100.00
46724;BME280;32463;48.298;11.620;2023-12-14T10:42:59;96034.63;;;7.95;100.00
46724;BME280;32463;48.298;11.620;2023-12-14T10:45:29;96035.69;;;7.31;100.00
46724;BME280;32463;48.298;11.620;2023-12-14T10:48:01;96042.47;;;7.32;100.00
46724;BME280;32463;48.298;11.620;2023-12-14T10:50:30;96046.38;;;7.09;100.00
46724;BME280;32463;48.298;11.620;2023-12-14T10:52:57;96042.13;;;7.00;100.00
46724;BME280;32463;48.298;11.620;2023-12-14T10:55:37;96048.28;;;7.07;100.00
46724;BME280;32463;48.298;11.620;2023-12-14T10:58:04;96048.41;;;7.15;100.00
46724;BME280;32463;48.298;11.620;2023-12-14T11:00:31;96055.91;;;7.54;100.00
46724;BME280;32463;48.298;11.620;2023-12-14T11:02:59;96053.34;;;7.26;100.00
46724;BME280;32463;48.298;11.620;2023-12-14T11:05:27;96058.31;;;7.10;100.00
46724;BME280;32463;48.298;11.620;2023-12-14T11:08:05;96051.88;;;7.41;100.00
46724;BME280;32463;48.298;11.620;2023-12-14T11:10:39;96060.75;;;7.12;100.00
46724;BME280;32463;48.298;11.620;2023-12-14T11:13:07;96063.69;;;6.99;100.00
46724;BME280;32463;48.298;11.620;2023-12-14T11:15:36;96075.03;;;7.33;100.00
46724;BME280;32463;48.298;11.620;2023-12-14T11:23:33;96071.78;;;7.31;100.00
46724;BME280;32463;48.298;11.620;2023-12-14T11:26:03;96080.38;;;6.95;100.00
46724;BME280;32463;48.298;11.620;2023-12-14T11:28:31;96082.28;;;6.93;100.00
46724;BME280;32463;48.298;11.620;2023-12-14T11:30:57;96078.75;;;6.94;100.00
46724;BME280;32463;48.298;11.620;2023-12-14T11:33:24;96079.59;;;6.85;100.00
46724;BME280;32463;48.298;11.620;2023-12-14T11:35:54;96093.19;;;6.77;100.00
46724;BME280;32463;48.298;11.620;2023-12-14T11:38:20;96086.53;;;7.12;100.00
46724;BME280;32463;48.298;11.620;2023-12-14T11:40:49;96085.63;;;7.30;100.00
46724;BME280;32463;48.298;11.620;2023-12-14T11:43:16;96102.81;;;7.12;100.00
46724;BME280;32463;48.298;11.620;2023-12-14T11:45:45;96103.88;;;7.19;100.00
46724;BME280;32463;48.298;11.620;2023-12-14T11:48:12;96096.31;;;7.08;100.00
46724;BME280;32463;48.298;11.620;2023-12-14T11:50:40;96104.38;;;6.58;100.00
46724;BME280;32463;48.298;11.620;2023-12-14T11:53:08;96102.47;;;6.51;100.00
46724;BME280;32463;48.298;11.620;2023-12-14T11:55:37;96104.03;;;6.81;100.00
46724;BME280;32463;48.298;11.620;2023-12-14T11:58:04;96102.81;;;7.39;100.00
46724;BME280;32463;48.298;11.620;2023-12-14T12:00:32;96102.66;;;7.86;100.00
46724;BME280;32463;48.298;11.620;2023-12-14T12:03:15;96097.31;;;9.35;100.00
46724;BME280;32463;48.298;11.620;2023-12-14T12:05:47;96090.59;;;9.08;100.00
46724;BME280;32463;48.298;11.620;2023-12-14T12:08:15;96100.94;;;9.08;100.00
46724;BME280;32463;48.298;11.620;2023-12-14T12:10:44;96112.78;;;8.93;100.00
46724;BME280;32463;48.298;11.620;2023-12-14T12:13:19;96120.19;;;8.36;100.00
46724;BME280;32463;48.298;11.620;2023-12-14T12:15:47;96122.63;;;7.84;100.00
46724;BME280;32463;48.298;11.620;2023-12-14T12:18:15;96118.91;;;7.51;100.00
46724;BME280;32463;48.298;11.620;2023-12-14T12:20:42;96122.19;;;7.43;100.00
46724;BME280;32463;48.298;11.620;2023-12-14T12:23:09;96122.97;;;7.54;100.00
46724;BME280;32463;48.298;11.620;2023-12-14T12:25:35;96130.25;;;7.03;100.00
46724;BME280;32463;48.298;11.620;2023-12-14T12:28:02;96117.28;;;6.86;100.00
46724;BME280;32463;48.298;11.620;2023-12-14T12:30:29;96132.47;;;6.89;100.00
46724;BME280;32463;48.298;11.620;2023-12-14T12:32:56;96128.16;;;6.80;100.00
46724;BME280;32463;48.298;11.620;2023-12-14T12:35:23;96131.81;;;6.87;100.00
46724;BME280;32463;48.298;11.620;2023-12-14T12:37:50;96128.44;;;7.14;100.00
46724;BME280;32463;48.298;11.620;2023-12-14T12:40:21;96130.22;;;7.13;100.00
46724;BME280;32463;48.298;11.620;2023-12-14T12:42:48;96128.41;;;6.86;100.00
46724;BME280;32463;48.298;11.620;2023-12-14T12:45:18;96138.41;;;6.99;100.00
46724;BME280;32463;48.298;11.620;2023-12-14T12:47:47;96137.63;;;6.89;100.00
46724;BME280;32463;48.298;11.620;2023-12-14T12:50:14;96143.66;;;7.07;100.00
46724;BME280;32463;48.298;11.620;2023-12-14T12:52:41;96141.16;;;6.88;100.00
46724;BME280;32463;48.298;11.620;2023-12-14T12:55:08;96150.66;;;6.78;100.00